sensor_id;sensor_type;location;lat;lon;timestamp;P1;durP1;ratioP1;P2;durP2;ratioP2
75696;SDS011;64312;44.738;20.612;2023-04-06T00:01:38;23.27;;;11.95;;
75696;SDS011;64312;44.738;20.612;2023-04-06T00:04:04;20.83;;;11.90;;
75696;SDS011;64312;44.738;20.612;2023-04-06T00:06:30;22.15;;;11.85;;
75696;SDS011;64312;44.738;20.612;2023-04-06T00:08:55;20.55;;;11.20;;
75696;SDS011;64312;44.738;20.612;2023-04-06T00:11:22;24.27;;;12.68;;
75696;SDS011;64312;44.738;20.612;2023-04-06T00:13:47;25.35;;;13.32;;
75696;SDS011;64312;44.738;20.612;2023-04-06T00:16:13;24.48;;;12.95;;
75696;SDS011;64312;44.738;20.612;2023-04-06T00:18:39;25.25;;;13.77;;
75696;SDS011;64312;44.738;20.612;2023-04-06T00:21:05;23.63;;;11.90;;
75696;SDS011;64312;44.738;20.612;2023-04-06T00:23:31;23.30;;;11.90;;
75696;SDS011;64312;44.738;20.612;2023-04-06T00:25:57;20.15;;;11.02;;
75696;SDS011;64312;44.738;20.612;2023-04-06T00:28:22;18.42;;;10.70;;
75696;SDS011;64312;44.738;20.612;2023-04-06T00:30:52;19.50;;;11.35;;
75696;SDS011;64312;44.738;20.612;2023-04-06T00:33:19;21.45;;;10.75;;
75696;SDS011;64312;44.738;20.612;2023-04-06T00:35:45;20.83;;;10.27;;
75696;SDS011;64312;44.738;20.612;2023-04-06T00:38:11;19.02;;;10.38;;
75696;SDS011;64312;44.738;20.612;2023-04-06T00:40:37;20.60;;;12.25;;
75696;SDS011;64312;44.738;20.612;2023-04-06T00:43:05;19.55;;;11.65;;
75696;SDS011;64312;44.738;20.612;2023-04-06T00:45:31;23.05;;;11.48;;
75696;SDS011;64312;44.738;20.612;2023-04-06T00:47:57;18.52;;;11.07;;
75696;SDS011;64312;44.738;20.612;2023-04-06T00:50:24;19.20;;;11.30;;
75696;SDS011;64312;44.738;20.612;2023-04-06T00:52:50;19.08;;;10.73;;
75696;SDS011;64312;44.738;20.612;2023-04-06T00:55:20;17.00;;;9.82;;
75696;SDS011;64312;44.738;20.612;2023-04-06T00:57:47;18.40;;;10.20;;
75696;SDS011;64312;44.738;20.612;2023-04-06T01:00:13;24.98;;;12.27;;
75696;SDS011;64312;44.738;20.612;2023-04-06T01:02:43;17.98;;;10.55;;
75696;SDS011;64312;44.738;20.612;2023-04-06T01:05:11;19.63;;;10.90;;
75696;SDS011;64312;44.738;20.612;2023-04-06T01:07:46;19.67;;;10.88;;
75696;SDS011;64312;44.738;20.612;2023-04-06T01:10:22;20.20;;;11.20;;
75696;SDS011;64312;44.738;20.612;2023-04-06T01:12:56;21.48;;;11.65;;
75696;SDS011;64312;44.738;20.612;2023-04-06T01:15:58;21.00;;;11.13;;
75696;SDS011;64312;44.738;20.612;2023-04-06T01:18:41;20.63;;;10.98;;
75696;SDS011;64312;44.738;20.612;2023-04-06T01:21:15;26.65;;;11.50;;
75696;SDS011;64312;44.738;20.612;2023-04-06T01:23:51;20.92;;;10.50;;
75696;SDS011;64312;44.738;20.612;2023-04-06T01:26:23;18.95;;;10.88;;
75696;SDS011;64312;44.738;20.612;2023-04-06T01:28:51;21.95;;;11.43;;
75696;SDS011;64312;44.738;20.612;2023-04-06T01:31:24;23.58;;;10.55;;
75696;SDS011;64312;44.738;20.612;2023-04-06T01:33:52;19.45;;;10.80;;
75696;SDS011;64312;44.738;20.612;2023-04-06T01:36:20;19.70;;;11.07;;
75696;SDS011;64312;44.738;20.612;2023-04-06T01:38:53;23.65;;;12.95;;
75696;SDS011;64312;44.738;20.612;2023-04-06T01:41:27;24.35;;;11.60;;
75696;SDS011;64312;44.738;20.612;2023-04-06T01:43:53;21.48;;;10.98;;
75696;SDS011;64312;44.738;20.612;2023-04-06T01:46:22;16.17;;;9.73;;
75696;SDS011;64312;44.738;20.612;2023-04-06T01:48:49;24.13;;;11.32;;
75696;SDS011;64312;44.738;20.612;2023-04-06T01:51:20;21.45;;;11.25;;
75696;SDS011;64312;44.738;20.612;2023-04-06T01:53:52;20.77;;;10.15;;
75696;SDS011;64312;44.738;20.612;2023-04-06T01:56:21;21.20;;;10.68;;
75696;SDS011;64312;44.738;20.612;2023-04-06T01:59:00;19.98;;;11.00;;
75696;SDS011;64312;44.738;20.612;2023-04-06T02:01:34;19.73;;;10.35;;
75696;SDS011;64312;44.738;20.612;2023-04-06T02:03:59;19.70;;;11.70;;
75696;SDS011;64312;44.738;20.612;2023-04-06T02:06:25;25.88;;;11.60;;
75696;SDS011;64312;44.738;20.612;2023-04-06T02:08:52;20.27;;;11.13;;
75696;SDS011;64312;44.738;20.612;2023-04-06T02:11:18;22.88;;;11.40;;
75696;SDS011;64312;44.738;20.612;2023-04-06T02:13:48;21.52;;;10.68;;
75696;SDS011;64312;44.738;20.612;2023-04-06T02:16:15;16.27;;;9.88;;
75696;SDS011;64312;44.738;20.612;2023-04-06T02:18:43;19.77;;;10.57;;
75696;SDS011;64312;44.738;20.612;2023-04-06T02:21:10;23.25;;;10.35;;
75696;SDS011;64312;44.738;20.612;2023-04-06T02:23:36;18.63;;;10.93;;
75696;SDS011;64312;44.738;20.612;2023-04-06T02:26:02;20.50;;;10.68;;
75696;SDS011;64312;44.738;20.612;2023-04-06T02:28:27;17.30;;;10.45;;
75696;SDS011;64312;44.738;20.612;2023-04-06T02:30:53;21.35;;;10.23;;
75696;SDS011;64312;44.738;20.612;2023-04-06T02:33:24;24.15;;;12.32;;
75696;SDS011;64312;44.738;20.612;2023-04-06T02:35:50;17.88;;;9.77;;
75696;SDS011;64312;44.738;20.612;2023-04-06T02:38:15;23.60;;;10.57;;
75696;SDS011;64312;44.738;20.612;2023-04-06T02:40:41;17.30;;;9.77;;
75696;SDS011;64312;44.738;20.612;2023-04-06T02:43:25;21.02;;;10.60;;
75696;SDS011;64312;44.738;20.612;2023-04-06T02:46:01;20.00;;;10.82;;
75696;SDS011;64312;44.738;20.612;2023-04-06T02:48:27;16.65;;;9.60;;
75696;SDS011;64312;44.738;20.612;2023-04-06T02:50:52;17.40;;;9.20;;
75696;SDS011;64312;44.738;20.612;2023-04-06T02:53:18;17.58;;;9.57;;
75696;SDS011;64312;44.738;20.612;2023-04-06T02:55:44;18.42;;;10.70;;
75696;SDS011;64312;44.738;20.612;2023-04-06T02:58:10;23.42;;;12.25;;
75696;SDS011;64312;44.738;20.612;2023-04-06T03:00:43;21.48;;;11.23;;
75696;SDS011;64312;44.738;20.612;2023-04-06T03:03:09;24.40;;;10.55;;
75696;SDS011;64312;44.738;20.612;2023-04-06T03:05:35;22.85;;;11.85;;
75696;SDS011;64312;44.738;20.612;2023-04-06T03:08:01;27.20;;;13.18;;
75696;SDS011;64312;44.738;20.612;2023-04-06T03:10:40;19.17;;;10.43;;
75696;SDS011;64312;44.738;20.612;2023-04-06T03:13:06;20.33;;;10.57;;
75696;SDS011;64312;44.738;20.612;2023-04-06T03:15:45;28.48;;;13.07;;
75696;SDS011;64312;44.738;20.612;2023-04-06T03:18:14;22.85;;;12.02;;
75696;SDS011;64312;44.738;20.612;2023-04-06T03:20:44;20.27;;;10.18;;
75696;SDS011;64312;44.738;20.612;2023-04-06T03:23:13;20.23;;;10.52;;
75696;SDS011;64312;44.738;20.612;2023-04-06T03:25:40;19.33;;;10.30;;
75696;SDS011;64312;44.738;20.612;2023-04-06T03:28:09;18.80;;;10.00;;
75696;SDS011;64312;44.738;20.612;2023-04-06T03:30:41;21.20;;;11.82;;
75696;SDS011;64312;44.738;20.612;2023-04-06T03:33:08;19.40;;;10.82;;
75696;SDS011;64312;44.738;20.612;2023-04-06T03:35:41;22.20;;;11.82;;
75696;SDS011;64312;44.738;20.612;2023-04-06T03:38:07;25.38;;;11.60;;
75696;SDS011;64312;44.738;20.612;2023-04-06T03:40:32;19.80;;;11.02;;
75696;SDS011;64312;44.738;20.612;2023-04-06T03:42:58;22.58;;;11.38;;
75696;SDS011;64312;44.738;20.612;2023-04-06T03:45:24;26.27;;;11.77;;
75696;SDS011;64312;44.738;20.612;2023-04-06T03:47:50;21.30;;;11.32;;
75696;SDS011;64312;44.738;20.612;2023-04-06T03:50:17;21.98;;;11.57;;
75696;SDS011;64312;44.738;20.612;2023-04-06T03:52:43;22.25;;;11.23;;
75696;SDS011;64312;44.738;20.612;2023-04-06T03:55:09;20.95;;;10.90;;
75696;SDS011;64312;44.738;20.612;2023-04-06T03:57:35;21.02;;;11.15;;
75696;SDS011;64312;44.738;20.612;2023-04-06T04:00:01;19.75;;;11.05;;
75696;SDS011;64312;44.738;20.612;2023-04-06T04:02:38;20.65;;;11.02;;
75696;SDS011;64312;44.738;20.612;2023-04-06T04:05:03;21.67;;;11.15;;
75696;SDS011;64312;44.738;20.612;2023-04-06T04:07:29;20.20;;;11.32;;
75696;SDS011;64312;44.738;20.612;2023-04-06T04:09:56;22.85;;;11.80;;
75696;SDS011;64312;44.738;20.612;2023-04-06T04:12:21;21.70;;;11.75;;
75696;SDS011;64312;44.738;20.612;2023-04-06T04:14:47;24.60;;;11.85;;
75696;SDS011;64312;44.738;20.612;2023-04-06T04:17:13;24.48;;;12.88;;
75696;SDS011;64312;44.738;20.612;2023-04-06T04:19:38;30.15;;;12.55;;
75696;SDS011;64312;44.738;20.612;2023-04-06T04:22:04;24.23;;;13.70;;
75696;SDS011;64312;44.738;20.612;2023-04-06T04:24:33;25.70;;;13.38;;
75696;SDS011;64312;44.738;20.612;2023-04-06T04:26:59;26.23;;;12.88;;
75696;SDS011;64312;44.738;20.612;2023-04-06T04:29:30;24.08;;;12.95;;
75696;SDS011;64312;44.738;20.612;2023-04-06T04:32:00;25.60;;;13.82;;
75696;SDS011;64312;44.738;20.612;2023-04-06T04:34:26;24.50;;;13.25;;
75696;SDS011;64312;44.738;20.612;2023-04-06T04:36:53;27.77;;;13.73;;
75696;SDS011;64312;44.738;20.612;2023-04-06T04:39:27;168.18;;;47.33;;
75696;SDS011;64312;44.738;20.612;2023-04-06T04:42:00;38.40;;;18.25;;
75696;SDS011;64312;44.738;20.612;2023-04-06T04:44:27;31.73;;;16.88;;
75696;SDS011;64312;44.738;20.612;2023-04-06T04:46:53;35.90;;;16.75;;
75696;SDS011;64312;44.738;20.612;2023-04-06T04:49:23;30.73;;;16.13;;
75696;SDS011;64312;44.738;20.612;2023-04-06T04:51:50;37.17;;;18.52;;
75696;SDS011;64312;44.738;20.612;2023-04-06T04:56:50;39.83;;;17.75;;
75696;SDS011;64312;44.738;20.612;2023-04-06T04:59:38;34.35;;;15.55;;
75696;SDS011;64312;44.738;20.612;2023-04-06T05:02:15;26.60;;;13.50;;
75696;SDS011;64312;44.738;20.612;2023-04-06T05:04:51;36.60;;;18.35;;
75696;SDS011;64312;44.738;20.612;2023-04-06T05:07:20;37.17;;;16.05;;
75696;SDS011;64312;44.738;20.612;2023-04-06T05:09:48;25.83;;;12.85;;
75696;SDS011;64312;44.738;20.612;2023-04-06T05:12:13;33.10;;;17.02;;
75696;SDS011;64312;44.738;20.612;2023-04-06T05:14:51;25.67;;;13.82;;
75696;SDS011;64312;44.738;20.612;2023-04-06T05:17:19;27.30;;;13.43;;
75696;SDS011;64312;44.738;20.612;2023-04-06T05:19:44;27.88;;;13.45;;
75696;SDS011;64312;44.738;20.612;2023-04-06T05:22:13;30.02;;;15.15;;
75696;SDS011;64312;44.738;20.612;2023-04-06T05:24:44;51.78;;;24.55;;
75696;SDS011;64312;44.738;20.612;2023-04-06T05:27:10;46.85;;;20.45;;
75696;SDS011;64312;44.738;20.612;2023-04-06T05:29:36;45.53;;;21.40;;
75696;SDS011;64312;44.738;20.612;2023-04-06T05:32:02;37.55;;;18.48;;
75696;SDS011;64312;44.738;20.612;2023-04-06T05:34:29;33.08;;;17.05;;
75696;SDS011;64312;44.738;20.612;2023-04-06T05:36:55;32.60;;;17.55;;
75696;SDS011;64312;44.738;20.612;2023-04-06T05:39:24;33.83;;;17.58;;
75696;SDS011;64312;44.738;20.612;2023-04-06T05:41:52;32.20;;;16.92;;
75696;SDS011;64312;44.738;20.612;2023-04-06T05:44:36;25.93;;;13.33;;
75696;SDS011;64312;44.738;20.612;2023-04-06T05:47:10;33.97;;;17.38;;
75696;SDS011;64312;44.738;20.612;2023-04-06T05:49:37;32.88;;;16.88;;
75696;SDS011;64312;44.738;20.612;2023-04-06T05:52:08;41.38;;;20.40;;
75696;SDS011;64312;44.738;20.612;2023-04-06T05:54:35;34.08;;;17.85;;
75696;SDS011;64312;44.738;20.612;2023-04-06T05:57:02;31.00;;;15.88;;
75696;SDS011;64312;44.738;20.612;2023-04-06T05:59:29;28.80;;;14.82;;
75696;SDS011;64312;44.738;20.612;2023-04-06T06:01:56;39.25;;;20.70;;
75696;SDS011;64312;44.738;20.612;2023-04-06T06:04:22;56.55;;;24.92;;
75696;SDS011;64312;44.738;20.612;2023-04-06T06:06:51;36.47;;;18.23;;
75696;SDS011;64312;44.738;20.612;2023-04-06T06:09:23;33.63;;;15.80;;
75696;SDS011;64312;44.738;20.612;2023-04-06T06:12:01;33.72;;;16.75;;
75696;SDS011;64312;44.738;20.612;2023-04-06T06:14:29;27.90;;;14.98;;
75696;SDS011;64312;44.738;20.612;2023-04-06T06:16:54;52.50;;;23.48;;
75696;SDS011;64312;44.738;20.612;2023-04-06T06:19:21;25.77;;;15.75;;
75696;SDS011;64312;44.738;20.612;2023-04-06T06:21:49;32.53;;;16.92;;
75696;SDS011;64312;44.738;20.612;2023-04-06T06:24:14;30.17;;;16.50;;
75696;SDS011;64312;44.738;20.612;2023-04-06T06:26:40;28.98;;;16.63;;
75696;SDS011;64312;44.738;20.612;2023-04-06T06:29:07;33.13;;;17.77;;
75696;SDS011;64312;44.738;20.612;2023-04-06T06:31:36;31.90;;;16.70;;
75696;SDS011;64312;44.738;20.612;2023-04-06T06:34:02;30.13;;;16.05;;
75696;SDS011;64312;44.738;20.612;2023-04-06T06:36:29;32.85;;;16.75;;
75696;SDS011;64312;44.738;20.612;2023-04-06T06:38:57;26.95;;;15.60;;
75696;SDS011;64312;44.738;20.612;2023-04-06T06:41:24;29.05;;;15.35;;
75696;SDS011;64312;44.738;20.612;2023-04-06T06:43:52;31.55;;;16.65;;
75696;SDS011;64312;44.738;20.612;2023-04-06T06:46:18;34.70;;;16.77;;
75696;SDS011;64312;44.738;20.612;2023-04-06T06:48:43;29.90;;;16.05;;
75696;SDS011;64312;44.738;20.612;2023-04-06T06:51:09;30.25;;;15.75;;
75696;SDS011;64312;44.738;20.612;2023-04-06T06:53:39;32.38;;;16.73;;
75696;SDS011;64312;44.738;20.612;2023-04-06T06:56:04;29.02;;;16.83;;
75696;SDS011;64312;44.738;20.612;2023-04-06T06:58:31;32.92;;;15.02;;
75696;SDS011;64312;44.738;20.612;2023-04-06T07:00:58;27.38;;;14.68;;
75696;SDS011;64312;44.738;20.612;2023-04-06T07:03:25;26.67;;;14.63;;
75696;SDS011;64312;44.738;20.612;2023-04-06T07:05:53;27.13;;;14.80;;
75696;SDS011;64312;44.738;20.612;2023-04-06T07:08:20;28.25;;;15.52;;
75696;SDS011;64312;44.738;20.612;2023-04-06T07:10:47;26.88;;;15.77;;
75696;SDS011;64312;44.738;20.612;2023-04-06T07:13:14;26.17;;;15.65;;
75696;SDS011;64312;44.738;20.612;2023-04-06T07:15:48;34.78;;;16.48;;
75696;SDS011;64312;44.738;20.612;2023-04-06T07:18:15;28.50;;;15.30;;
75696;SDS011;64312;44.738;20.612;2023-04-06T07:20:42;32.78;;;17.23;;
75696;SDS011;64312;44.738;20.612;2023-04-06T07:23:08;40.90;;;18.25;;
75696;SDS011;64312;44.738;20.612;2023-04-06T07:25:34;30.98;;;17.80;;
75696;SDS011;64312;44.738;20.612;2023-04-06T07:28:01;30.95;;;16.88;;
75696;SDS011;64312;44.738;20.612;2023-04-06T07:30:28;31.00;;;16.50;;
75696;SDS011;64312;44.738;20.612;2023-04-06T07:32:55;37.60;;;19.15;;
75696;SDS011;64312;44.738;20.612;2023-04-06T07:35:23;30.23;;;16.08;;
75696;SDS011;64312;44.738;20.612;2023-04-06T07:37:51;30.85;;;16.67;;
75696;SDS011;64312;44.738;20.612;2023-04-06T07:40:18;27.67;;;15.27;;
75696;SDS011;64312;44.738;20.612;2023-04-06T07:42:45;30.80;;;15.43;;
75696;SDS011;64312;44.738;20.612;2023-04-06T07:45:11;30.10;;;15.07;;
75696;SDS011;64312;44.738;20.612;2023-04-06T07:47:37;29.75;;;15.02;;
75696;SDS011;64312;44.738;20.612;2023-04-06T07:50:03;30.20;;;16.77;;
75696;SDS011;64312;44.738;20.612;2023-04-06T07:52:30;29.35;;;16.02;;
75696;SDS011;64312;44.738;20.612;2023-04-06T07:54:58;35.10;;;17.30;;
75696;SDS011;64312;44.738;20.612;2023-04-06T07:57:24;28.35;;;15.48;;
75696;SDS011;64312;44.738;20.612;2023-04-06T07:59:50;35.72;;;16.30;;
75696;SDS011;64312;44.738;20.612;2023-04-06T08:02:16;33.10;;;17.48;;
75696;SDS011;64312;44.738;20.612;2023-04-06T08:04:42;28.98;;;14.63;;
75696;SDS011;64312;44.738;20.612;2023-04-06T08:07:08;28.00;;;15.02;;
75696;SDS011;64312;44.738;20.612;2023-04-06T08:09:34;28.63;;;15.07;;
75696;SDS011;64312;44.738;20.612;2023-04-06T08:12:00;29.90;;;14.88;;
75696;SDS011;64312;44.738;20.612;2023-04-06T08:14:26;28.25;;;14.95;;
75696;SDS011;64312;44.738;20.612;2023-04-06T08:16:52;29.58;;;15.95;;
75696;SDS011;64312;44.738;20.612;2023-04-06T08:19:17;28.23;;;15.60;;
75696;SDS011;64312;44.738;20.612;2023-04-06T08:21:44;25.42;;;15.13;;
75696;SDS011;64312;44.738;20.612;2023-04-06T08:24:12;25.60;;;14.73;;
75696;SDS011;64312;44.738;20.612;2023-04-06T08:26:38;34.08;;;16.88;;
75696;SDS011;64312;44.738;20.612;2023-04-06T08:29:04;30.40;;;17.27;;
75696;SDS011;64312;44.738;20.612;2023-04-06T08:31:33;34.10;;;17.58;;
75696;SDS011;64312;44.738;20.612;2023-04-06T08:33:59;29.00;;;16.70;;
75696;SDS011;64312;44.738;20.612;2023-04-06T08:36:25;27.98;;;15.07;;
75696;SDS011;64312;44.738;20.612;2023-04-06T08:38:51;27.63;;;16.08;;
75696;SDS011;64312;44.738;20.612;2023-04-06T08:41:17;32.00;;;16.10;;
75696;SDS011;64312;44.738;20.612;2023-04-06T08:43:44;26.75;;;15.57;;
75696;SDS011;64312;44.738;20.612;2023-04-06T08:46:12;36.83;;;17.15;;
75696;SDS011;64312;44.738;20.612;2023-04-06T08:48:39;25.92;;;14.43;;
75696;SDS011;64312;44.738;20.612;2023-04-06T08:51:06;26.80;;;13.98;;
75696;SDS011;64312;44.738;20.612;2023-04-06T08:53:32;26.95;;;14.30;;
75696;SDS011;64312;44.738;20.612;2023-04-06T08:55:58;24.60;;;12.68;;
75696;SDS011;64312;44.738;20.612;2023-04-06T08:58:25;25.52;;;14.20;;
75696;SDS011;64312;44.738;20.612;2023-04-06T09:00:53;29.90;;;15.55;;
75696;SDS011;64312;44.738;20.612;2023-04-06T09:03:20;25.02;;;14.15;;
75696;SDS011;64312;44.738;20.612;2023-04-06T09:05:46;25.85;;;14.65;;
75696;SDS011;64312;44.738;20.612;2023-04-06T09:08:12;25.30;;;14.55;;
75696;SDS011;64312;44.738;20.612;2023-04-06T09:10:42;28.30;;;15.90;;
75696;SDS011;64312;44.738;20.612;2023-04-06T09:13:08;27.15;;;14.73;;
75696;SDS011;64312;44.738;20.612;2023-04-06T09:15:34;25.05;;;12.68;;
75696;SDS011;64312;44.738;20.612;2023-04-06T09:18:00;28.15;;;16.08;;
75696;SDS011;64312;44.738;20.612;2023-04-06T09:20:26;24.98;;;13.82;;
75696;SDS011;64312;44.738;20.612;2023-04-06T09:22:53;21.92;;;12.18;;
75696;SDS011;64312;44.738;20.612;2023-04-06T09:25:23;22.40;;;11.73;;
75696;SDS011;64312;44.738;20.612;2023-04-06T09:27:58;17.67;;;9.13;;
75696;SDS011;64312;44.738;20.612;2023-04-06T09:30:25;15.80;;;8.77;;
75696;SDS011;64312;44.738;20.612;2023-04-06T09:32:52;15.48;;;9.07;;
75696;SDS011;64312;44.738;20.612;2023-04-06T09:35:20;18.80;;;9.95;;
75696;SDS011;64312;44.738;20.612;2023-04-06T09:37:47;13.75;;;7.88;;
75696;SDS011;64312;44.738;20.612;2023-04-06T09:40:14;13.60;;;8.05;;
75696;SDS011;64312;44.738;20.612;2023-04-06T09:42:44;13.82;;;7.90;;
75696;SDS011;64312;44.738;20.612;2023-04-06T09:45:12;13.55;;;8.05;;
75696;SDS011;64312;44.738;20.612;2023-04-06T09:47:39;14.13;;;8.70;;
75696;SDS011;64312;44.738;20.612;2023-04-06T09:50:08;13.73;;;7.88;;
75696;SDS011;64312;44.738;20.612;2023-04-06T09:52:37;14.32;;;8.48;;
75696;SDS011;64312;44.738;20.612;2023-04-06T09:55:07;14.15;;;8.05;;
75696;SDS011;64312;44.738;20.612;2023-04-06T09:57:45;15.23;;;8.60;;
75696;SDS011;64312;44.738;20.612;2023-04-06T10:00:47;12.52;;;7.65;;
75696;SDS011;64312;44.738;20.612;2023-04-06T10:06:22;14.38;;;8.23;;
75696;SDS011;64312;44.738;20.612;2023-04-06T10:08:52;12.15;;;7.22;;
75696;SDS011;64312;44.738;20.612;2023-04-06T10:11:21;11.77;;;7.43;;
75696;SDS011;64312;44.738;20.612;2023-04-06T10:13:47;13.18;;;7.18;;
75696;SDS011;64312;44.738;20.612;2023-04-06T10:16:15;15.20;;;8.88;;
75696;SDS011;64312;44.738;20.612;2023-04-06T10:18:44;14.07;;;8.07;;
75696;SDS011;64312;44.738;20.612;2023-04-06T10:21:17;12.45;;;7.97;;
75696;SDS011;64312;44.738;20.612;2023-04-06T10:23:51;28.15;;;12.55;;
75696;SDS011;64312;44.738;20.612;2023-04-06T10:26:20;14.68;;;7.72;;
75696;SDS011;64312;44.738;20.612;2023-04-06T10:28:46;15.90;;;8.40;;
75696;SDS011;64312;44.738;20.612;2023-04-06T10:31:13;12.48;;;7.57;;
75696;SDS011;64312;44.738;20.612;2023-04-06T10:33:39;22.73;;;10.82;;
75696;SDS011;64312;44.738;20.612;2023-04-06T10:36:13;25.63;;;11.93;;
75696;SDS011;64312;44.738;20.612;2023-04-06T10:38:40;16.45;;;8.88;;
75696;SDS011;64312;44.738;20.612;2023-04-06T10:41:07;13.57;;;7.93;;
75696;SDS011;64312;44.738;20.612;2023-04-06T10:43:34;14.60;;;8.82;;
75696;SDS011;64312;44.738;20.612;2023-04-06T10:46:02;18.25;;;8.38;;
75696;SDS011;64312;44.738;20.612;2023-04-06T10:48:43;17.58;;;8.63;;
75696;SDS011;64312;44.738;20.612;2023-04-06T10:51:15;10.63;;;6.82;;
75696;SDS011;64312;44.738;20.612;2023-04-06T10:53:45;13.52;;;7.28;;
75696;SDS011;64312;44.738;20.612;2023-04-06T10:56:15;10.90;;;7.00;;
75696;SDS011;64312;44.738;20.612;2023-04-06T11:01:19;10.65;;;6.38;;
75696;SDS011;64312;44.738;20.612;2023-04-06T11:03:47;15.50;;;8.55;;
75696;SDS011;64312;44.738;20.612;2023-04-06T11:06:21;11.55;;;7.20;;
75696;SDS011;64312;44.738;20.612;2023-04-06T11:08:52;11.38;;;6.47;;
75696;SDS011;64312;44.738;20.612;2023-04-06T11:11:22;14.77;;;7.15;;
75696;SDS011;64312;44.738;20.612;2023-04-06T11:13:53;10.55;;;6.50;;
75696;SDS011;64312;44.738;20.612;2023-04-06T11:18:49;10.18;;;7.40;;
75696;SDS011;64312;44.738;20.612;2023-04-06T11:26:37;14.10;;;7.93;;
75696;SDS011;64312;44.738;20.612;2023-04-06T11:29:20;18.33;;;9.85;;
75696;SDS011;64312;44.738;20.612;2023-04-06T11:31:51;10.95;;;6.88;;
75696;SDS011;64312;44.738;20.612;2023-04-06T11:34:19;14.43;;;8.35;;
75696;SDS011;64312;44.738;20.612;2023-04-06T11:36:49;16.00;;;8.40;;
75696;SDS011;64312;44.738;20.612;2023-04-06T11:39:20;16.23;;;9.07;;
75696;SDS011;64312;44.738;20.612;2023-04-06T11:41:48;13.73;;;8.30;;
75696;SDS011;64312;44.738;20.612;2023-04-06T11:44:33;16.23;;;8.50;;
75696;SDS011;64312;44.738;20.612;2023-04-06T11:47:01;15.80;;;8.50;;
75696;SDS011;64312;44.738;20.612;2023-04-06T11:49:28;17.65;;;9.15;;
75696;SDS011;64312;44.738;20.612;2023-04-06T11:51:55;13.18;;;8.90;;
75696;SDS011;64312;44.738;20.612;2023-04-06T11:54:31;12.45;;;8.80;;
75696;SDS011;64312;44.738;20.612;2023-04-06T11:56:58;18.88;;;9.60;;
75696;SDS011;64312;44.738;20.612;2023-04-06T11:59:25;13.80;;;8.07;;
75696;SDS011;64312;44.738;20.612;2023-04-06T12:01:52;11.07;;;7.63;;
75696;SDS011;64312;44.738;20.612;2023-04-06T12:04:19;13.68;;;8.60;;
75696;SDS011;64312;44.738;20.612;2023-04-06T12:06:45;11.63;;;7.03;;
75696;SDS011;64312;44.738;20.612;2023-04-06T12:09:10;14.80;;;8.02;;
75696;SDS011;64312;44.738;20.612;2023-04-06T12:11:36;12.40;;;7.35;;
75696;SDS011;64312;44.738;20.612;2023-04-06T12:14:02;13.43;;;8.20;;
75696;SDS011;64312;44.738;20.612;2023-04-06T12:16:30;12.18;;;7.65;;
75696;SDS011;64312;44.738;20.612;2023-04-06T12:18:56;13.25;;;8.02;;
75696;SDS011;64312;44.738;20.612;2023-04-06T12:21:22;12.57;;;7.82;;
75696;SDS011;64312;44.738;20.612;2023-04-06T12:23:48;12.43;;;7.85;;
75696;SDS011;64312;44.738;20.612;2023-04-06T12:26:14;11.68;;;7.18;;
75696;SDS011;64312;44.738;20.612;2023-04-06T12:28:39;12.07;;;7.32;;
75696;SDS011;64312;44.738;20.612;2023-04-06T12:31:05;12.02;;;7.78;;
75696;SDS011;64312;44.738;20.612;2023-04-06T12:33:30;13.00;;;8.30;;
75696;SDS011;64312;44.738;20.612;2023-04-06T12:35:56;11.23;;;7.68;;
75696;SDS011;64312;44.738;20.612;2023-04-06T12:38:22;11.93;;;8.15;;
75696;SDS011;64312;44.738;20.612;2023-04-06T12:40:47;14.70;;;7.30;;
75696;SDS011;64312;44.738;20.612;2023-04-06T12:43:13;14.43;;;8.77;;
75696;SDS011;64312;44.738;20.612;2023-04-06T12:45:39;15.02;;;8.05;;
75696;SDS011;64312;44.738;20.612;2023-04-06T12:48:06;14.60;;;9.75;;
75696;SDS011;64312;44.738;20.612;2023-04-06T12:50:33;12.75;;;8.88;;
75696;SDS011;64312;44.738;20.612;2023-04-06T12:52:59;16.42;;;8.88;;
75696;SDS011;64312;44.738;20.612;2023-04-06T12:55:24;12.98;;;7.65;;
75696;SDS011;64312;44.738;20.612;2023-04-06T12:57:50;11.73;;;7.75;;
75696;SDS011;64312;44.738;20.612;2023-04-06T13:00:16;12.27;;;7.22;;
75696;SDS011;64312;44.738;20.612;2023-04-06T13:02:42;19.73;;;10.60;;
75696;SDS011;64312;44.738;20.612;2023-04-06T13:05:12;17.73;;;10.45;;
75696;SDS011;64312;44.738;20.612;2023-04-06T13:07:39;20.52;;;10.80;;
75696;SDS011;64312;44.738;20.612;2023-04-06T13:10:05;17.58;;;9.63;;
75696;SDS011;64312;44.738;20.612;2023-04-06T13:12:31;22.02;;;11.35;;
75696;SDS011;64312;44.738;20.612;2023-04-06T13:14:57;21.13;;;12.20;;
75696;SDS011;64312;44.738;20.612;2023-04-06T13:17:23;24.75;;;12.45;;
75696;SDS011;64312;44.738;20.612;2023-04-06T13:19:49;17.52;;;9.40;;
75696;SDS011;64312;44.738;20.612;2023-04-06T13:22:15;20.98;;;11.75;;
75696;SDS011;64312;44.738;20.612;2023-04-06T13:24:41;21.02;;;12.02;;
75696;SDS011;64312;44.738;20.612;2023-04-06T13:27:06;21.58;;;11.48;;
75696;SDS011;64312;44.738;20.612;2023-04-06T13:29:32;16.10;;;9.85;;
75696;SDS011;64312;44.738;20.612;2023-04-06T13:31:59;22.63;;;11.85;;
75696;SDS011;64312;44.738;20.612;2023-04-06T13:34:25;15.93;;;9.73;;
75696;SDS011;64312;44.738;20.612;2023-04-06T13:36:50;17.38;;;9.93;;
75696;SDS011;64312;44.738;20.612;2023-04-06T13:39:16;18.33;;;10.15;;
75696;SDS011;64312;44.738;20.612;2023-04-06T13:41:41;20.73;;;10.93;;
75696;SDS011;64312;44.738;20.612;2023-04-06T13:44:07;15.05;;;9.45;;
75696;SDS011;64312;44.738;20.612;2023-04-06T13:46:33;17.33;;;9.73;;
75696;SDS011;64312;44.738;20.612;2023-04-06T13:48:59;14.23;;;8.82;;
75696;SDS011;64312;44.738;20.612;2023-04-06T13:51:25;18.17;;;9.93;;
75696;SDS011;64312;44.738;20.612;2023-04-06T13:53:52;14.48;;;9.43;;
75696;SDS011;64312;44.738;20.612;2023-04-06T13:56:18;19.00;;;10.07;;
75696;SDS011;64312;44.738;20.612;2023-04-06T13:58:45;15.50;;;9.25;;
75696;SDS011;64312;44.738;20.612;2023-04-06T14:01:10;14.85;;;9.32;;
75696;SDS011;64312;44.738;20.612;2023-04-06T14:03:36;16.35;;;9.40;;
75696;SDS011;64312;44.738;20.612;2023-04-06T14:06:11;14.57;;;9.68;;
75696;SDS011;64312;44.738;20.612;2023-04-06T14:08:38;16.80;;;10.40;;
75696;SDS011;64312;44.738;20.612;2023-04-06T14:11:03;21.15;;;11.35;;
75696;SDS011;64312;44.738;20.612;2023-04-06T14:13:29;18.95;;;10.73;;
75696;SDS011;64312;44.738;20.612;2023-04-06T14:15:55;20.77;;;11.25;;
75696;SDS011;64312;44.738;20.612;2023-04-06T14:18:22;23.02;;;11.45;;
75696;SDS011;64312;44.738;20.612;2023-04-06T14:20:57;23.73;;;13.55;;
75696;SDS011;64312;44.738;20.612;2023-04-06T14:23:24;20.63;;;11.50;;
75696;SDS011;64312;44.738;20.612;2023-04-06T14:26:02;20.85;;;11.02;;
75696;SDS011;64312;44.738;20.612;2023-04-06T14:28:29;21.15;;;13.00;;
75696;SDS011;64312;44.738;20.612;2023-04-06T14:30:56;19.42;;;10.10;;
75696;SDS011;64312;44.738;20.612;2023-04-06T14:33:22;20.13;;;11.00;;
75696;SDS011;64312;44.738;20.612;2023-04-06T14:35:47;27.38;;;13.55;;